Time;durP1;ratioP1;P1;durP2;ratioP2;P2;SDS_P1;SDS_P2;PMS_P1;PMS_P2;Temp;Humidity;BMP_temperature;BMP_pressure;BME280_temperature;BME280_humidity;BME280_pressure;Samples;Min_cycle;Max_cycle;Signal;HPM_P1;HPM_P2
2023/05/14 00:02:08;;;;;;;;;37.50;30.75;;;;;17.62;100.00;101715.03;5070955;28;64239;-75
2023/05/14 00:04:33;;;;;;;;;37.75;32.00;;;;;17.53;100.00;101708.84;5072500;28;45808;-75
2023/05/14 00:06:59;;;;;;;;;32.50;29.75;;;;;17.46;100.00;101703.53;5066155;28;68292;-77
2023/05/14 00:09:25;;;;;;;;;34.25;30.00;;;;;17.44;100.00;101702.66;5076367;28;45590;-78
2023/05/14 00:11:50;;;;;;;;;35.50;31.25;;;;;17.40;100.00;101700.88;5076713;28;45442;-77
2023/05/14 00:14:16;;;;;;;;;31.00;26.50;;;;;17.37;100.00;101700.91;5076576;28;46785;-77
2023/05/14 00:16:41;;;;;;;;;32.75;29.75;;;;;17.31;100.00;101699.16;5073760;28;49572;-75
2023/05/14 00:19:07;;;;;;;;;42.00;33.00;;;;;17.26;100.00;101700.94;5075711;28;46961;-76
2023/05/14 00:21:32;;;;;;;;;38.50;33.00;;;;;17.25;100.00;101712.47;5072684;28;48381;-77
2023/05/14 00:23:57;;;;;;;;;37.75;32.25;;;;;17.21;100.00;101710.75;5071819;28;45646;-76
2023/05/14 00:26:23;;;;;;;;;36.75;30.50;;;;;17.16;100.00;101702.72;5075638;28;46745;-76
2023/05/14 00:28:48;;;;;;;;;37.50;31.75;;;;;17.10;100.00;101689.41;5076513;28;45312;-76
2023/05/14 00:31:14;;;;;;;;;35.50;33.00;;;;;17.08;100.00;101685.84;5067119;28;45264;-76
2023/05/14 00:33:39;;;;;;;;;43.00;32.75;;;;;17.07;100.00;101693.84;5075572;28;47479;-78
2023/05/14 00:36:05;;;;;;;;;35.00;32.75;;;;;17.03;100.00;101691.19;5074132;28;45331;-76
2023/05/14 00:38:30;;;;;;;;;38.50;34.25;;;;;17.00;100.00;101687.66;5075833;28;45473;-77
2023/05/14 00:40:55;;;;;;;;;39.00;33.50;;;;;16.99;100.00;101688.50;5072084;28;57035;-77
2023/05/14 00:43:21;;;;;;;;;36.50;32.00;;;;;16.95;100.00;101694.78;5073799;28;46593;-77
2023/05/14 00:45:49;;;;;;;;;32.25;30.00;;;;;16.92;100.00;101694.75;5076260;28;45513;-76
2023/05/14 00:48:14;;;;;;;;;38.00;32.25;;;;;16.91;100.00;101690.31;5070883;28;45612;-79
2023/05/14 00:50:40;;;;;;;;;40.25;33.50;;;;;16.86;100.00;101685.00;5074660;28;45406;-76
2023/05/14 00:53:09;;;;;;;;;38.25;31.00;;;;;16.86;100.00;101689.44;5049635;28;46657;-76
2023/05/14 00:55:37;;;;;;;;;37.25;33.00;;;;;16.84;100.00;101686.78;5075866;28;45217;-76
2023/05/14 00:58:13;;;;;;;;;36.00;33.00;;;;;16.82;100.00;101685.00;5066487;28;45686;-76
2023/05/14 01:00:39;;;;;;;;;36.25;31.00;;;;;16.77;100.00;101672.53;5077689;28;45572;-78
2023/05/14 01:03:06;;;;;;;;;38.75;32.50;;;;;16.75;100.00;101682.34;5056905;28;46393;-76
2023/05/14 01:05:53;;;;;;;;;42.50;34.25;;;;;16.72;100.00;101676.09;5073793;28;45484;-76
2023/05/14 01:08:31;;;;;;;;;42.00;34.75;;;;;16.66;100.00;101674.28;5077360;28;45509;-78
2023/05/14 01:11:04;;;;;;;;;43.00;34.00;;;;;16.61;100.00;101668.06;5072551;28;45340;-77
2023/05/14 01:13:39;;;;;;;;;39.75;34.75;;;;;16.58;100.00;101673.44;5060242;28;46429;-77
2023/05/14 01:16:11;;;;;;;;;40.75;33.75;;;;;16.54;100.00;101673.44;5057849;28;45356;-76
2023/05/14 01:18:37;;;;;;;;;42.75;33.50;;;;;16.52;100.00;101681.44;5047180;28;45438;-76
2023/05/14 01:21:02;;;;;;;;;38.50;32.75;;;;;16.45;100.00;101671.63;5059939;28;62293;-76
2023/05/14 01:23:28;;;;;;;;;39.75;34.50;;;;;16.42;100.00;101683.19;5076755;28;46081;-76
2023/05/14 01:25:53;;;;;;;;;39.75;33.50;;;;;16.42;100.00;101676.97;5078406;28;67661;-78
2023/05/14 01:28:22;;;;;;;;;35.50;32.00;;;;;16.43;100.00;101681.41;5076312;28;63225;-76
2023/05/14 01:30:49;;;;;;;;;40.25;34.00;;;;;16.48;100.00;101682.31;5077044;28;45369;-77
2023/05/14 01:33:17;;;;;;;;;41.75;35.25;;;;;16.52;100.00;101688.53;5060544;28;45747;-76
2023/05/14 01:35:43;;;;;;;;;39.50;34.25;;;;;16.54;100.00;101690.31;5078045;28;45303;-76
2023/05/14 01:38:10;;;;;;;;;38.75;31.75;;;;;16.55;100.00;101686.75;5059312;28;46847;-78
2023/05/14 01:40:36;;;;;;;;;45.50;37.00;;;;;16.55;100.00;101677.84;5057995;28;45586;-77
2023/05/14 01:43:03;;;;;;;;;43.75;37.00;;;;;16.58;100.00;101685.88;5077548;28;47235;-76
2023/05/14 01:45:29;;;;;;;;;39.50;33.25;;;;;16.61;100.00;101689.41;5060024;28;47092;-77
2023/05/14 01:47:55;;;;;;;;;43.50;33.00;;;;;16.63;100.00;101681.44;5074193;28;45340;-78
2023/05/14 01:50:20;;;;;;;;;38.25;34.00;;;;;16.66;100.00;101678.75;5072980;28;45233;-76
2023/05/14 01:52:47;;;;;;;;;40.75;34.00;;;;;16.67;100.00;101677.84;5073116;28;73324;-77
2023/05/14 01:55:12;;;;;;;;;48.00;37.00;;;;;16.64;100.00;101662.75;5070409;28;45285;-76
2023/05/14 01:57:38;;;;;;;;;39.00;32.50;;;;;16.68;100.00;101671.66;5079019;28;45334;-76
2023/05/14 02:00:04;;;;;;;;;47.50;36.50;;;;;16.67;100.00;101678.75;5075670;28;45519;-77
2023/05/14 02:02:29;;;;;;;;;39.50;35.00;;;;;16.67;100.00;101677.84;5078519;28;45343;-76
2023/05/14 02:04:55;;;;;;;;;44.50;34.75;;;;;16.66;100.00;101678.75;5074395;28;45437;-77
2023/05/14 02:07:20;;;;;;;;;47.75;37.25;;;;;16.67;100.00;101684.09;5075837;28;64003;-78
2023/05/14 02:09:45;;;;;;;;;39.75;33.00;;;;;16.64;100.00;101675.19;5075603;28;58151;-76
2023/05/14 02:12:11;;;;;;;;;43.25;35.00;;;;;16.67;100.00;101681.44;5077584;28;68581;-76
2023/05/14 02:14:36;;;;;;;;;37.50;33.00;;;;;16.67;100.00;101675.19;5077162;28;45270;-76
2023/05/14 02:17:02;;;;;;;;;37.25;33.00;;;;;16.66;100.00;101671.63;5073164;28;45431;-76
2023/05/14 02:19:28;;;;;;;;;45.00;34.25;;;;;16.65;100.00;101667.19;5074442;28;45432;-77
2023/05/14 02:21:53;;;;;;;;;45.00;36.50;;;;;16.68;100.00;101671.66;5071041;28;46622;-76
2023/05/14 02:24:18;;;;;;;;;42.75;32.25;;;;;16.66;100.00;101666.28;5073485;28;64058;-76
2023/05/14 02:26:44;;;;;;;;;46.00;36.00;;;;;16.67;100.00;101667.19;5076192;28;65713;-76
2023/05/14 02:29:09;;;;;;;;;44.00;34.00;;;;;16.69;100.00;101673.41;5074693;28;61934;-77
2023/05/14 02:31:34;;;;;;;;;39.00;33.00;;;;;16.69;100.00;101671.63;5075822;28;47612;-76
2023/05/14 02:34:00;;;;;;;;;41.00;31.50;;;;;16.69;100.00;101668.97;5071995;28;45296;-77
2023/05/14 02:36:25;;;;;;;;;47.50;36.00;;;;;16.69;100.00;101668.09;5075965;28;45653;-76
2023/05/14 02:38:51;;;;;;;;;41.75;33.50;;;;;16.70;100.00;101664.53;5071192;28;55244;-76
2023/05/14 02:41:16;;;;;;;;;40.00;33.50;;;;;16.69;100.00;101670.75;5075845;28;54759;-76
2023/05/14 02:43:41;;;;;;;;;46.00;36.50;;;;;16.67;100.00;101670.75;5076238;28;65826;-76
2023/05/14 02:46:07;;;;;;;;;39.50;34.00;;;;;16.65;100.00;101663.63;5077596;28;58870;-78
2023/05/14 02:48:32;;;;;;;;;44.50;35.50;;;;;16.64;100.00;101661.88;5075532;28;63471;-76
2023/05/14 02:50:57;;;;;;;;;39.75;30.50;;;;;16.61;100.00;101662.75;5072705;28;46655;-77
2023/05/14 02:53:23;;;;;;;;;40.50;33.25;;;;;16.56;100.00;101659.19;5071662;28;70506;-76
2023/05/14 02:55:48;;;;;;;;;33.00;30.00;;;;;16.55;100.00;101662.75;5076101;28;58177;-75
2023/05/14 02:58:14;;;;;;;;;40.25;32.00;;;;;16.54;100.00;101666.31;5070687;28;45135;-77
2023/05/14 03:00:39;;;;;;;;;43.50;34.25;;;;;16.52;100.00;101660.09;5074011;28;45517;-76
2023/05/14 03:03:04;;;;;;;;;40.25;36.25;;;;;16.52;100.00;101664.56;5070893;28;45180;-77
2023/05/14 03:05:30;;;;;;;;;41.00;33.75;;;;;16.48;100.00;101659.19;5061746;28;64045;-76
2023/05/14 03:07:55;;;;;;;;;37.25;33.00;;;;;16.42;100.00;101664.53;5074937;28;45706;-77
2023/05/14 03:10:20;;;;;;;;;47.75;34.75;;;;;16.38;100.00;101669.88;5068702;28;67020;-76
2023/05/14 03:12:46;;;;;;;;;36.25;33.50;;;;;16.31;100.00;101673.44;5074323;28;45383;-76
2023/05/14 03:15:11;;;;;;;;;38.25;34.00;;;;;16.26;100.00;101667.19;5071451;28;46908;-78
2023/05/14 03:17:37;;;;;;;;;36.25;32.50;;;;;16.19;100.00;101669.88;5074650;28;45352;-78
2023/05/14 03:20:02;;;;;;;;;33.25;27.00;;;;;16.19;100.00;101676.94;5072921;28;61156;-76
2023/05/14 03:22:28;;;;;;;;;37.50;33.00;;;;;16.14;100.00;101666.31;5073992;28;45522;-77
2023/05/14 03:24:53;;;;;;;;;33.50;32.00;;;;;16.13;100.00;101669.81;5076278;28;64219;-77
2023/05/14 03:27:18;;;;;;;;;40.25;34.50;;;;;16.12;100.00;101673.38;5073991;28;58206;-78
2023/05/14 03:29:44;;;;;;;;;41.00;33.50;;;;;16.12;100.00;101669.84;5074314;28;66151;-77
2023/05/14 03:32:09;;;;;;;;;35.75;33.00;;;;;16.11;100.00;101671.63;5075241;28;61211;-76
2023/05/14 03:34:34;;;;;;;;;40.00;33.25;;;;;16.15;100.00;101672.53;5058670;28;45296;-78
2023/05/14 03:37:00;;;;;;;;;45.00;34.00;;;;;16.15;100.00;101675.19;5072742;28;45489;-76
2023/05/14 03:39:25;;;;;;;;;42.75;34.75;;;;;16.16;100.00;101675.19;5075512;28;45831;-76
2023/05/14 03:41:51;;;;;;;;;33.75;31.25;;;;;16.17;100.00;101674.28;5073220;28;45453;-76
2023/05/14 03:44:16;;;;;;;;;47.00;35.25;;;;;16.19;100.00;101666.28;5074286;28;45429;-77
2023/05/14 03:46:41;;;;;;;;;45.25;34.00;;;;;16.20;100.00;101670.75;5068432;28;51377;-76
2023/05/14 03:49:07;;;;;;;;;35.75;34.00;;;;;16.16;100.00;101679.63;5075729;28;68633;-75
2023/05/14 03:51:33;;;;;;;;;44.00;33.25;;;;;16.08;100.00;101676.91;5076901;28;45544;-77
2023/05/14 03:53:58;;;;;;;;;39.50;32.75;;;;;16.01;100.00;101669.81;5069734;28;64656;-77
2023/05/14 03:56:24;;;;;;;;;34.00;31.75;;;;;15.98;100.00;101672.50;5074914;28;45188;-76
2023/05/14 03:58:50;;;;;;;;;46.75;35.00;;;;;15.94;100.00;101668.03;5077159;28;46942;-77
2023/05/14 04:01:16;;;;;;;;;42.00;33.75;;;;;15.92;100.00;101676.00;5068219;28;45382;-75
2023/05/14 04:03:41;;;;;;;;;37.25;32.25;;;;;15.94;100.00;101673.34;5071300;28;66010;-76
2023/05/14 04:06:06;;;;;;;;;46.25;35.75;;;;;15.95;100.00;101672.47;5075650;28;61390;-76
2023/05/14 04:08:32;;;;;;;;;41.75;34.75;;;;;15.91;100.00;101673.34;5071315;28;57603;-76
2023/05/14 04:10:57;;;;;;;;;39.50;32.25;;;;;15.87;100.00;101671.53;5055664;28;65055;-76
2023/05/14 04:13:22;;;;;;;;;47.50;35.00;;;;;15.84;100.00;101672.44;5070063;28;62269;-76
2023/05/14 04:15:48;;;;;;;;;40.75;32.75;;;;;15.85;100.00;101673.31;5075206;28;56817;-76
2023/05/14 04:18:13;;;;;;;;;38.75;32.00;;;;;15.80;100.00;101667.97;5075372;28;72479;-77
2023/05/14 04:20:39;;;;;;;;;44.25;34.25;;;;;15.78;100.00;101664.44;5073702;28;45458;-76
2023/05/14 04:23:04;;;;;;;;;46.25;34.50;;;;;15.81;100.00;101675.09;5058858;28;45521;-76
2023/05/14 04:25:30;;;;;;;;;41.50;32.50;;;;;15.80;100.00;101670.66;5076749;28;45255;-75
2023/05/14 04:27:55;;;;;;;;;36.25;30.75;;;;;15.79;100.00;101668.88;5071893;28;46436;-78
2023/05/14 04:30:21;;;;;;;;;39.25;31.00;;;;;15.80;100.00;101672.44;5067722;28;68093;-77
2023/05/14 04:32:46;;;;;;;;;43.00;34.50;;;;;15.79;100.00;101676.88;5052141;28;45292;-78
2023/05/14 04:35:11;;;;;;;;;44.00;35.25;;;;;15.78;100.00;101685.75;5075025;28;59956;-77
2023/05/14 04:37:37;;;;;;;;;41.75;33.50;;;;;15.78;100.00;101675.09;5067120;28;45857;-78
2023/05/14 04:40:04;;;;;;;;;31.50;30.50;;;;;15.79;100.00;101671.53;5072634;28;45498;-77
2023/05/14 04:42:30;;;;;;;;;42.00;30.75;;;;;15.80;100.00;101683.06;5068312;28;45372;-78
2023/05/14 04:44:55;;;;;;;;;39.00;34.25;;;;;15.76;100.00;101673.28;5076637;28;45323;-75
2023/05/14 04:47:21;;;;;;;;;44.00;31.50;;;;;15.75;100.00;101680.41;5073836;28;46089;-78
2023/05/14 04:49:46;;;;;;;;;39.75;32.00;;;;;15.76;100.00;101681.28;5074209;28;45283;-76
2023/05/14 04:52:11;;;;;;;;;43.25;34.75;;;;;15.72;100.00;101677.75;5073949;28;45271;-77
2023/05/14 04:54:37;;;;;;;;;38.25;33.50;;;;;15.69;100.00;101683.94;5076135;28;45359;-75
2023/05/14 04:57:02;;;;;;;;;38.50;31.75;;;;;15.64;100.00;101666.16;5071166;28;68757;-78
2023/05/14 04:59:28;;;;;;;;;35.50;30.00;;;;;15.66;100.00;101669.75;5072720;28;45350;-77
2023/05/14 05:01:54;;;;;;;;;41.00;34.75;;;;;15.65;100.00;101674.16;5070217;28;45287;-77
2023/05/14 05:04:19;;;;;;;;;41.50;34.25;;;;;15.68;100.00;101670.63;5074685;28;53852;-78
2023/05/14 05:06:45;;;;;;;;;42.25;33.25;;;;;15.66;100.00;101662.63;5075057;28;45310;-75
2023/05/14 05:09:10;;;;;;;;;36.75;32.50;;;;;15.68;100.00;101668.84;5073923;28;52471;-76
2023/05/14 05:11:36;;;;;;;;;44.25;34.75;;;;;15.69;100.00;101659.06;5073495;28;64640;-77
2023/05/14 05:14:02;;;;;;;;;44.50;33.00;;;;;15.73;100.00;101667.97;5070393;28;45481;-75
2023/05/14 05:16:27;;;;;;;;;41.75;33.50;;;;;15.71;100.00;101668.88;5071205;28;69430;-76
2023/05/14 05:18:52;;;;;;;;;46.50;36.50;;;;;15.72;100.00;101669.75;5068273;28;68450;-75
2023/05/14 05:21:17;;;;;;;;;39.75;33.50;;;;;15.73;100.00;101660.00;5067077;28;56629;-77
2023/05/14 05:23:43;;;;;;;;;43.75;32.50;;;;;15.75;100.00;101661.75;5070431;28;52665;-75
2023/05/14 05:26:08;;;;;;;;;43.50;31.50;;;;;15.76;100.00;101668.84;5067720;28;64297;-77
2023/05/14 05:28:33;;;;;;;;;34.00;31.25;;;;;15.78;100.00;101667.09;5075094;28;45284;-75
2023/05/14 05:30:59;;;;;;;;;44.75;35.50;;;;;15.79;100.00;101673.31;5074596;28;63349;-76
2023/05/14 05:33:24;;;;;;;;;47.00;36.00;;;;;15.83;100.00;101678.66;5056913;28;51907;-74
2023/05/14 05:35:51;;;;;;;;;43.50;34.75;;;;;15.85;100.00;101673.31;5071594;28;68768;-76
2023/05/14 05:38:17;;;;;;;;;48.00;34.75;;;;;15.84;100.00;101677.75;5069556;28;45463;-77
2023/05/14 05:40:42;;;;;;;;;43.25;36.75;;;;;15.81;100.00;101674.19;5075448;28;45486;-76
2023/05/14 05:43:08;;;;;;;;;45.75;34.75;;;;;15.82;100.00;101683.97;5072172;28;45329;-78
2023/05/14 05:45:33;;;;;;;;;42.25;34.75;;;;;15.80;100.00;101680.41;5077276;28;71156;-77
2023/05/14 05:47:58;;;;;;;;;47.00;35.75;;;;;15.73;100.00;101687.50;5075178;28;45363;-75
2023/05/14 05:50:25;;;;;;;;;48.25;37.00;;;;;15.73;100.00;101694.59;5076972;28;55923;-75
2023/05/14 05:52:50;;;;;;;;;45.75;36.50;;;;;15.69;100.00;101693.69;5071730;28;45585;-77
2023/05/14 05:55:16;;;;;;;;;44.75;32.50;;;;;15.65;100.00;101690.13;5055850;28;46190;-76
2023/05/14 05:57:41;;;;;;;;;51.00;38.25;;;;;15.64;100.00;101696.34;5071596;28;65601;-76
2023/05/14 06:00:13;;;;;;;;;42.75;33.75;;;;;15.61;100.00;101696.31;5077900;28;45313;-75
2023/05/14 06:02:39;;;;;;;;;49.75;36.75;;;;;15.60;100.00;101699.81;5076145;28;45471;-78
2023/05/14 06:05:06;;;;;;;;;46.50;36.25;;;;;15.57;100.00;101702.50;5077769;28;47473;-75
2023/05/14 06:07:31;;;;;;;;;47.25;35.00;;;;;15.54;100.00;101699.81;5076651;28;47099;-75
2023/05/14 06:09:56;;;;;;;;;42.75;32.00;;;;;15.55;100.00;101703.34;5075290;28;50278;-76
2023/05/14 06:12:22;;;;;;;;;46.75;34.50;;;;;15.56;100.00;101713.13;5074492;28;55907;-75
2023/05/14 06:14:47;;;;;;;;;43.50;33.50;;;;;15.59;100.00;101718.47;5073883;28;64022;-75
2023/05/14 06:17:12;;;;;;;;;46.50;34.75;;;;;15.59;100.00;101723.78;5071419;28;65464;-76
2023/05/14 06:19:37;;;;;;;;;47.25;38.75;;;;;15.57;100.00;101722.91;5071623;28;62713;-77
2023/05/14 06:22:03;;;;;;;;;47.25;33.50;;;;;15.59;100.00;101726.44;5076843;28;57316;-75
2023/05/14 06:24:28;;;;;;;;;43.50;34.00;;;;;15.58;100.00;101725.56;5074334;28;46476;-76
2023/05/14 06:26:54;;;;;;;;;50.00;34.25;;;;;15.59;100.00;101726.44;5074993;28;65482;-75
2023/05/14 06:29:19;;;;;;;;;51.25;38.50;;;;;15.59;100.00;101727.34;5077843;28;45931;-77
2023/05/14 06:31:45;;;;;;;;;47.50;37.50;;;;;15.61;100.00;101727.38;5073550;28;45485;-76
2023/05/14 06:34:10;;;;;;;;;47.25;35.00;;;;;15.62;100.00;101724.69;5074107;28;47160;-76
2023/05/14 06:36:35;;;;;;;;;48.00;37.75;;;;;15.67;100.00;101727.41;5078531;28;45513;-76
2023/05/14 06:39:02;;;;;;;;;51.50;36.75;;;;;15.66;100.00;101723.88;5073663;28;59765;-76
2023/05/14 06:41:28;;;;;;;;;49.75;36.50;;;;;15.70;100.00;101724.75;5078037;28;45557;-76
2023/05/14 06:43:54;;;;;;;;;49.00;36.25;;;;;15.72;100.00;101736.31;5075417;28;45509;-77
2023/05/14 06:46:19;;;;;;;;;47.00;37.00;;;;;15.75;100.00;101727.44;5074838;28;45346;-76
2023/05/14 06:48:45;;;;;;;;;51.25;41.00;;;;;15.77;100.00;101733.69;5073524;28;45360;-76
2023/05/14 06:51:12;;;;;;;;;49.25;35.00;;;;;15.76;100.00;101734.53;5073088;28;45520;-75
2023/05/14 06:53:37;;;;;;;;;50.75;38.50;;;;;15.73;100.00;101730.09;5070925;28;46767;-75
2023/05/14 06:56:03;;;;;;;;;46.00;36.75;;;;;15.75;100.00;101727.44;5069875;28;45416;-76
2023/05/14 06:58:28;;;;;;;;;48.25;36.00;;;;;15.71;100.00;101732.78;5073000;28;45449;-78
2023/05/14 07:03:28;;;;;;;;;48.00;37.00;;;;;15.68;100.00;101732.75;5067269;22;45475;-78
2023/05/14 07:05:54;;;;;;;;;49.75;37.50;;;;;15.67;100.00;101730.09;5055899;28;45359;-77
2023/05/14 07:08:19;;;;;;;;;47.75;35.25;;;;;15.63;100.00;101731.81;5055666;28;45275;-76
2023/05/14 07:10:44;;;;;;;;;46.75;37.50;;;;;15.60;100.00;101729.09;5056810;28;62426;-76
2023/05/14 07:13:10;;;;;;;;;52.25;38.00;;;;;15.61;100.00;101733.56;5038439;28;70739;-76
2023/05/14 07:15:35;;;;;;;;;46.50;37.00;;;;;15.62;100.00;101734.47;5056425;28;65349;-75
2023/05/14 07:18:00;;;;;;;;;49.00;36.00;;;;;15.64;100.00;101735.38;5055924;28;45682;-75
2023/05/14 07:20:26;;;;;;;;;39.75;32.00;;;;;15.63;100.00;101734.50;5054666;28;59621;-74
2023/05/14 07:22:51;;;;;;;;;41.50;33.50;;;;;15.61;100.00;101738.00;5056111;28;70669;-75
2023/05/14 07:25:17;;;;;;;;;43.75;36.75;;;;;15.57;100.00;101731.78;5056336;28;45351;-76
2023/05/14 07:27:42;;;;;;;;;43.50;34.00;;;;;15.58;100.00;101744.19;5055348;28;45513;-78
2023/05/14 07:30:08;;;;;;;;;39.00;33.50;;;;;15.54;100.00;101741.50;5055380;28;63236;-80
2023/05/14 07:32:33;;;;;;;;;41.00;33.25;;;;;15.55;100.00;101745.94;5050096;28;47116;-76
2023/05/14 07:34:58;;;;;;;;;43.25;32.00;;;;;15.49;100.00;101745.91;5053020;28;70225;-76
2023/05/14 07:37:24;;;;;;;;;43.25;33.75;;;;;15.47;100.00;101743.25;5057233;28;45276;-78
2023/05/14 07:39:53;;;;;;;;;41.25;32.25;;;;;15.46;100.00;101745.03;5037560;28;45462;-77
2023/05/14 07:42:18;;;;;;;;;41.75;32.25;;;;;15.45;100.00;101743.25;5054264;28;46971;-77
2023/05/14 07:44:44;;;;;;;;;45.00;34.50;;;;;15.51;100.00;101749.50;5051854;28;45255;-76
2023/05/14 07:47:09;;;;;;;;;39.25;32.75;;;;;15.51;100.00;101742.38;5053090;28;48465;-75
2023/05/14 07:49:35;;;;;;;;;35.25;31.50;;;;;15.50;100.00;101734.38;5050491;28;45545;-76
2023/05/14 07:52:00;;;;;;;;;40.00;32.50;;;;;15.54;100.00;101734.41;5029459;28;46253;-74
2023/05/14 07:54:25;;;;;;;;;43.50;33.00;;;;;15.62;100.00;101746.00;5051275;28;69561;-76
2023/05/14 07:56:51;;;;;;;;;45.25;34.00;;;;;15.67;100.00;101743.41;5052254;28;66318;-75
2023/05/14 07:59:16;;;;;;;;;34.00;29.50;;;;;15.73;100.00;101739.88;5054845;28;45994;-75
2023/05/14 08:01:41;;;;;;;;;43.00;34.00;;;;;15.79;100.00;101746.09;5048287;28;70239;-75
2023/05/14 08:04:07;;;;;;;;;41.50;34.00;;;;;15.81;100.00;101740.78;5054482;28;56159;-77
2023/05/14 08:06:32;;;;;;;;;36.25;33.25;;;;;15.79;100.00;101738.09;5054877;28;57312;-76
2023/05/14 08:08:58;;;;;;;;;43.00;32.75;;;;;15.77;100.00;101739.00;5055660;28;45224;-77
2023/05/14 08:11:23;;;;;;;;;32.00;27.75;;;;;15.76;100.00;101730.09;5053527;28;46587;-75
2023/05/14 08:13:48;;;;;;;;;40.25;31.25;;;;;15.84;100.00;101731.03;5052452;28;64291;-74
2023/05/14 08:16:14;;;;;;;;;40.25;32.00;;;;;15.95;100.00;101749.72;5049474;28;59583;-75
2023/05/14 08:18:39;;;;;;;;;36.25;32.50;;;;;15.96;100.00;101735.50;5047956;28;49857;-75
2023/05/14 08:21:05;;;;;;;;;34.75;30.00;;;;;16.02;100.00;101738.19;5050932;28;46774;-74
2023/05/14 08:23:30;;;;;;;;;44.50;32.25;;;;;16.07;100.00;101739.09;5054653;28;45453;-75
2023/05/14 08:25:55;;;;;;;;;41.00;31.75;;;;;16.13;100.00;101733.78;5055178;28;45285;-74
2023/05/14 08:28:21;;;;;;;;;35.00;31.00;;;;;16.11;100.00;101735.56;5055472;28;46438;-76
2023/05/14 08:30:46;;;;;;;;;36.00;31.25;;;;;16.15;100.00;101742.69;5051968;28;46416;-75
2023/05/14 08:33:12;;;;;;;;;34.50;31.25;;;;;16.07;100.00;101731.09;5051472;28;69098;-74
2023/05/14 08:35:37;;;;;;;;;42.50;30.50;;;;;16.07;100.00;101740.88;5050257;28;45597;-75
2023/05/14 08:38:02;;;;;;;;;40.25;32.00;;;;;16.09;100.00;101740.00;5054214;28;50398;-75
2023/05/14 08:40:28;;;;;;;;;38.00;30.75;;;;;16.13;100.00;101740.88;5054309;28;68787;-77
2023/05/14 08:42:55;;;;;;;;;36.25;32.00;;;;;16.13;100.00;101735.56;5032914;28;45200;-78
2023/05/14 08:45:24;;;;;;;;;39.00;33.25;;;;;16.17;100.00;101748.00;5052069;28;45272;-75
2023/05/14 08:47:50;;;;;;;;;37.00;32.25;;;;;16.21;100.00;101753.34;5032209;28;45413;-75
2023/05/14 08:50:16;;;;;;;;;44.00;33.75;;;;;16.19;100.00;101760.47;5032644;28;46945;-75
2023/05/14 08:52:42;;;;;;;;;35.25;30.75;;;;;16.17;100.00;101750.66;5046617;28;45250;-77
2023/05/14 08:55:07;;;;;;;;;36.75;31.75;;;;;16.12;100.00;101747.97;5050540;28;51120;-76
2023/05/14 08:57:33;;;;;;;;;35.75;30.00;;;;;16.14;100.00;101754.22;5040197;28;45440;-75
2023/05/14 08:59:59;;;;;;;;;35.75;30.25;;;;;16.13;100.00;101751.53;5053054;28;47544;-75
2023/05/14 09:02:29;;;;;;;;;35.25;30.00;;;;;16.15;100.00;101757.78;5062796;28;45476;-75
2023/05/14 09:04:57;;;;;;;;;39.50;31.75;;;;;16.18;100.00;101757.78;5075274;28;45406;-77
2023/05/14 09:07:22;;;;;;;;;36.00;32.00;;;;;16.27;100.00;101744.47;5073079;28;45316;-77
2023/05/14 09:09:48;;;;;;;;;33.75;28.00;;;;;16.28;100.00;101746.25;5072878;28;46495;-75
2023/05/14 09:12:13;;;;;;;;;33.25;27.50;;;;;16.33;100.00;101744.47;5073892;28;45689;-77
2023/05/14 09:14:39;;;;;;;;;35.25;28.00;;;;;16.38;100.00;101749.84;5071988;28;45511;-75
2023/05/14 09:17:04;;;;;;;;;37.50;28.25;;;;;16.40;100.00;101748.94;5072296;28;45406;-74
2023/05/14 09:19:30;;;;;;;;;37.75;31.50;;;;;16.45;100.00;101747.16;5052429;28;67436;-75
2023/05/14 09:21:59;;;;;;;;;39.00;29.00;;;;;16.47;100.00;101747.19;5058932;28;55183;-75
2023/05/14 09:24:29;;;;;;;;;37.25;34.00;;;;;16.44;100.00;101729.41;5069625;27;45472;-76
2023/05/14 09:26:56;;;;;;;;;39.75;33.75;;;;;16.44;100.00;101744.50;5068518;27;45591;-76
2023/05/14 09:29:27;;;;;;;;;44.75;34.75;;;;;16.43;100.00;101734.72;5060385;28;45623;-80
2023/05/14 09:31:53;;;;;;;;;38.50;34.00;;;;;16.44;100.00;101731.16;5061144;28;45529;-77
2023/05/14 09:34:25;;;;;;;;;45.00;32.75;;;;;16.44;100.00;101737.38;5077029;28;46070;-74
2023/05/14 09:36:55;;;;;;;;;36.25;32.25;;;;;16.45;100.00;101736.50;5076484;28;45850;-75
2023/05/14 09:39:22;;;;;;;;;33.50;31.25;;;;;16.50;100.00;101736.50;5064605;28;46393;-75
2023/05/14 09:41:48;;;;;;;;;39.00;32.00;;;;;16.49;100.00;101742.72;5061201;28;45489;-73
2023/05/14 09:44:13;;;;;;;;;40.50;31.50;;;;;16.41;100.00;101737.41;5064877;28;45314;-73
2023/05/14 09:46:39;;;;;;;;;46.00;33.50;;;;;16.30;100.00;101740.91;5070030;28;45574;-73
2023/05/14 09:49:04;;;;;;;;;37.00;30.50;;;;;16.14;100.00;101746.22;5063650;28;45652;-74
2023/05/14 09:51:33;;;;;;;;;39.00;30.00;;;;;16.03;100.00;101741.72;5069577;28;67399;-72
2023/05/14 09:53:59;;;;;;;;;45.50;32.75;;;;;15.94;100.00;101740.84;5069919;28;45474;-75
2023/05/14 09:56:25;;;;;;;;;36.25;30.00;;;;;15.87;100.00;101738.13;5069644;28;45316;-73
2023/05/14 09:58:50;;;;;;;;;35.75;33.25;;;;;15.85;100.00;101740.78;5070195;28;45721;-75
2023/05/14 10:01:18;;;;;;;;;36.75;33.00;;;;;15.76;100.00;101738.09;5072100;28;45423;-72
2023/05/14 10:03:43;;;;;;;;;39.25;30.75;;;;;15.75;100.00;101744.31;5071944;28;45482;-77
2023/05/14 10:06:12;;;;;;;;;31.50;28.75;;;;;15.69;100.00;101744.28;5074577;28;59894;-72
2023/05/14 10:08:42;;;;;;;;;42.00;31.75;;;;;15.70;100.00;101738.94;5065609;28;45392;-73
2023/05/14 10:11:13;;;;;;;;;35.00;29.75;;;;;15.81;100.00;101732.78;5055657;28;45497;-79
2023/05/14 10:13:41;;;;;;;;;40.75;31.75;;;;;16.03;100.00;101731.97;5070697;28;45576;-79
2023/05/14 10:16:17;;;;;;;;;47.75;36.00;;;;;16.29;100.00;101737.34;5065041;28;45628;-81
2023/05/14 10:18:47;;;;;;;;;61.00;48.50;;;;;16.48;100.00;101733.84;5045257;28;47001;-80
2023/05/14 10:21:13;;;;;;;;;46.00;34.00;;;;;16.62;100.00;101736.53;5060818;28;45700;-77
2023/05/14 10:23:39;;;;;;;;;41.00;32.00;;;;;16.82;100.00;101727.66;5069345;28;45455;-78
2023/05/14 10:26:05;;;;;;;;;34.75;31.25;;;;;16.96;100.00;101721.44;5055657;28;45566;-77
2023/05/14 10:28:31;;;;;;;;;38.25;31.00;;;;;17.07;100.00;101721.44;5049478;28;46088;-78
2023/05/14 10:30:59;;;;;;;;;36.50;28.25;;;;;17.20;100.00;101716.94;5064906;28;49830;-79
2023/05/14 10:33:24;;;;;;;;;39.50;33.25;;;;;17.28;100.00;101725.84;5065950;28;45494;-79
2023/05/14 10:35:52;;;;;;;;;40.50;32.50;;;;;17.40;100.00;101712.44;5066084;28;62890;-79
2023/05/14 10:38:22;;;;;;;;;31.50;28.00;;;;;17.50;100.00;101713.31;5046586;28;46587;-81
2023/05/14 10:40:47;;;;;;;;;36.75;33.00;;;;;17.59;100.00;101710.63;5045325;28;45569;-79
2023/05/14 10:43:15;;;;;;;;;42.00;34.00;;;;;17.69;100.00;101703.47;5066830;28;45497;-79
2023/05/14 10:45:42;;;;;;;;;39.00;30.25;;;;;17.82;100.00;101706.97;5064228;28;45683;-77
2023/05/14 10:48:08;;;;;;;;;40.25;33.75;;;;;17.94;100.00;101704.22;5052908;28;47051;-79
2023/05/14 10:50:33;;;;;;;;;41.50;33.50;;;;;18.05;100.00;101705.06;5051280;28;46260;-80
2023/05/14 10:52:59;;;;;;;;;34.75;30.25;;;;;18.17;100.00;101707.69;5049834;28;66480;-78
2023/05/14 10:55:24;;;;;;;;;35.75;32.00;;;;;18.32;100.00;101695.97;5052033;28;45289;-81
2023/05/14 10:57:51;;;;;;;;;37.00;32.25;;;;;18.47;100.00;101703.88;5071085;28;46448;-79
2023/05/14 11:00:16;;;;;;;;;42.25;33.25;;;;;18.64;100.00;101694.84;5057640;28;60539;-79